createdAt,value
2022-09-21T00:02:19.210Z,-11173.28
2022-09-21T00:05:25.962Z,-11173.72
2022-09-21T00:08:32.558Z,-11170.75
2022-09-21T00:11:40.464Z,-11180.72
2022-09-21T00:14:46.728Z,-11172.03
2022-09-21T00:17:55.222Z,-11181.00
2022-09-21T00:21:01.495Z,-11172.03
2022-09-21T00:24:08.515Z,-11161.47
2022-09-21T00:27:16.271Z,-11164.16
2022-09-21T00:30:22.474Z,-11161.63
2022-09-21T00:33:28.563Z,-11165.13
2022-09-21T00:36:35.692Z,-11166.69
2022-09-21T00:39:42.098Z,-11168.09
2022-09-21T00:42:49.732Z,-11177.78
2022-09-21T00:46:01.489Z,-11167.81
2022-09-21T00:49:08.640Z,-11170.47
2022-09-21T00:52:15.915Z,-11160.78
2022-09-21T00:55:26.189Z,-11161.06
2022-09-21T00:58:38.786Z,-11168.94
2022-09-21T01:01:45.509Z,-11165.84
2022-09-21T01:04:55.086Z,-11164.84
2022-09-21T01:08:04.267Z,-11181.56
2022-09-21T01:11:26.422Z,-11174.25
2022-09-21T01:14:46.654Z,-11169.06
2022-09-21T01:18:00.687Z,-11177.22
2022-09-21T01:21:21.235Z,-11192.25
2022-09-21T01:24:47.274Z,-11180.31
2022-09-21T01:28:09.011Z,-11192.69
2022-09-21T01:31:23.632Z,-11192.53
2022-09-21T01:34:35.358Z,-11194.38
2022-09-21T01:37:47.126Z,-11185.50
2022-09-21T01:40:57.375Z,-11181.72
2022-09-21T01:44:09.046Z,-11182.00
2022-09-21T01:47:19.675Z,-11188.31
2022-09-21T01:50:28.143Z,-11185.50
2022-09-21T01:53:39.184Z,-11191.41
2022-09-21T01:56:52.041Z,-11191.97
2022-09-21T02:00:00.201Z,-11188.19
2022-09-21T02:03:14.131Z,-11190.16
2022-09-21T02:06:20.989Z,-11192.13
2022-09-21T02:09:26.958Z,-11185.38
2022-09-21T02:12:33.375Z,-11183.25
2022-09-21T02:15:55.300Z,-11186.06
2022-09-21T02:19:12.667Z,-11188.03
2022-09-21T02:22:32.166Z,-11187.06
2022-09-21T02:25:48.377Z,-11182.13
2022-09-21T02:29:02.781Z,-11182.13
2022-09-21T02:32:13.806Z,-11182.28
2022-09-21T02:35:32.591Z,-11182.69
2022-09-21T02:38:46.282Z,-11177.06
2022-09-21T02:42:03.153Z,-11173.44
2022-09-21T02:45:13.684Z,-11173.84
2022-09-21T02:48:27.332Z,-11178.91
2022-09-21T02:51:41.479Z,-11178.19
2022-09-21T02:54:51.185Z,-11174.81
2022-09-21T02:57:57.609Z,-11170.06
2022-09-21T03:01:04.502Z,-11172.59
2022-09-21T03:04:11.160Z,-11148.97
2022-09-21T03:07:19.068Z,-11143.78
2022-09-21T03:10:25.671Z,-11147.97
2022-09-21T03:13:31.665Z,-11157.69
2022-09-21T03:16:38.439Z,-11169.91
2022-09-21T03:19:44.394Z,-11172.44
2022-09-21T03:22:52.227Z,-11170.34
2022-09-21T03:25:58.330Z,-11167.09
2022-09-21T03:29:05.296Z,-11167.81
2022-09-21T03:32:12.071Z,-11168.78
2022-09-21T03:35:18.734Z,-11171.31
2022-09-21T03:38:27.033Z,-11166.53
2022-09-21T03:41:33.298Z,-11167.38
2022-09-21T03:44:39.403Z,-11169.50
2022-09-21T03:47:45.697Z,-11165.28
2022-09-21T03:50:51.954Z,-11170.19
2022-09-21T03:53:59.650Z,-11175.25
2022-09-21T03:57:06.278Z,-11161.75
2022-09-21T04:00:13.313Z,-11167.66
2022-09-21T04:03:19.457Z,-11159.94
2022-09-21T04:06:25.754Z,-11169.50
2022-09-21T04:09:33.402Z,-11172.59
2022-09-21T04:12:39.423Z,-11145.88
2022-09-21T04:15:45.439Z,-11145.59
2022-09-21T04:18:51.502Z,-11147.84
2022-09-21T04:21:57.734Z,-11155.44
2022-09-21T04:25:05.982Z,-11156.56
2022-09-21T04:28:12.287Z,-11156.97
2022-09-21T04:31:18.779Z,-11147.56
2022-09-21T04:34:25.283Z,-11150.09
2022-09-21T04:37:31.640Z,-11157.25
2022-09-21T04:40:39.538Z,-11151.22
2022-09-21T04:43:46.883Z,-11160.34
2022-09-21T04:46:53.188Z,-11169.50
2022-09-21T04:49:59.611Z,-11170.91
2022-09-21T04:53:05.993Z,-11170.91
2022-09-21T04:56:16.605Z,-11172.59
2022-09-21T04:59:23.131Z,-11173.44
2022-09-21T05:02:29.517Z,-11188.03
2022-09-21T05:05:35.973Z,-11169.63
2022-09-21T05:08:59.998Z,-11159.22
2022-09-21T05:12:08.050Z,-11155.16
2022-09-21T05:15:14.495Z,-11168.94
2022-09-21T05:18:20.612Z,-11167.94
2022-09-21T05:21:27.523Z,-11181.84
2022-09-21T05:24:33.828Z,-11177.22
2022-09-21T05:27:41.530Z,-11174.25
2022-09-21T05:31:16.281Z,-11171.75
2022-09-21T05:34:35.722Z,-11156.28
2022-09-21T05:37:48.560Z,-11179.31
2022-09-21T05:40:55.059Z,-11183.81
2022-09-21T05:44:03.196Z,-11186.22
2022-09-21T05:47:22.233Z,-11190.28
2022-09-21T05:50:50.408Z,-11181.84
2022-09-21T05:54:03.554Z,-11196.91
2022-09-21T05:57:18.018Z,-11194.50
2022-09-21T06:00:26.640Z,-11199.84
2022-09-21T06:03:36.411Z,-11201.69
2022-09-21T06:06:42.751Z,-11203.22
2022-09-21T06:09:48.950Z,-11205.19
2022-09-21T06:12:55.109Z,-11195.06
2022-09-21T06:16:04.897Z,-11194.09
2022-09-21T06:19:13.004Z,-11212.22
2022-09-21T06:22:19.137Z,-11218.84
2022-09-21T06:25:25.203Z,-11216.59
2022-09-21T06:28:31.831Z,-11225.16
2022-09-21T06:31:39.138Z,-11223.06
2022-09-21T06:34:45.307Z,-11226.44
2022-09-21T06:37:51.666Z,-11229.37
2022-09-21T06:41:03.096Z,-11226.00
2022-09-21T06:44:09.007Z,-11236.84
2022-09-21T06:47:16.585Z,-11237.56
2022-09-21T06:50:23.330Z,-11240.91
2022-09-21T06:53:30.466Z,-11243.31
2022-09-21T06:56:37.010Z,-11257.53
2022-09-21T06:59:43.257Z,-11264.56
2022-09-21T07:02:51.286Z,-11264.44
2022-09-21T07:05:57.169Z,-11240.91
2022-09-21T07:12:34.663Z,-11263.16
2022-09-21T07:15:40.866Z,-11266.81
2022-09-21T07:18:49.015Z,-11270.63
2022-09-21T07:21:55.630Z,-11256.69
2022-09-21T07:25:01.674Z,-11280.31
2022-09-21T07:28:08.119Z,-11287.34
2022-09-21T07:31:16.436Z,-11281.72
2022-09-21T07:34:24.046Z,-11289.91
2022-09-21T07:37:32.891Z,-11289.63
2022-09-21T07:40:39.207Z,-11289.75
2022-09-21T07:43:45.203Z,-11306.94
2022-09-21T07:46:51.672Z,-11283.84
2022-09-21T07:49:59.284Z,-11297.78
2022-09-21T07:53:06.023Z,-11303.56
2022-09-21T07:56:14.628Z,-11320.31
2022-09-21T07:59:20.550Z,-11323.97
2022-09-21T08:02:27.172Z,-11322.69
2022-09-21T08:05:35.287Z,-11326.66
2022-09-21T08:08:42.027Z,-11332.69
2022-09-21T08:11:48.243Z,-11325.66
2022-09-21T08:14:54.614Z,-11335.22
2022-09-21T08:18:02.881Z,-11336.09
2022-09-21T08:21:12.451Z,-11353.53
2022-09-21T08:24:18.758Z,-11332.69
2022-09-21T08:27:25.675Z,-11348.63
2022-09-21T08:30:32.020Z,-11341.00
2022-09-21T08:33:38.716Z,-11358.19
2022-09-21T08:36:49.718Z,-11353.97
2022-09-21T08:40:00.515Z,-11331.44
2022-09-21T08:43:12.406Z,-11332.56
2022-09-21T08:46:21.310Z,-11308.06
2022-09-21T08:49:29.786Z,-11320.72
2022-09-21T08:52:39.547Z,-11321.16
2022-09-21T08:55:45.736Z,-11308.19
2022-09-21T08:58:52.063Z,-11319.31
2022-09-21T09:02:06.709Z,-11324.81
2022-09-21T09:05:34.821Z,-11327.91
2022-09-21T09:09:00.159Z,-11327.06
2022-09-21T09:12:29.400Z,-11330.16
2022-09-21T09:15:57.482Z,-11327.34
2022-09-21T09:19:14.281Z,-11326.06
2022-09-21T09:22:26.471Z,-11331.84
2022-09-21T09:25:38.955Z,-11325.09
2022-09-21T09:28:53.082Z,-11321.72
2022-09-21T09:32:01.554Z,-11317.34
2022-09-21T09:35:20.504Z,-11341.00
2022-09-21T09:38:30.985Z,-11321.28
2022-09-21T09:41:57.445Z,-11336.50
2022-09-21T09:45:27.906Z,-11323.81
2022-09-21T09:48:51.954Z,-11325.94
2022-09-21T09:52:00.863Z,-11312.84
2022-09-21T09:55:20.281Z,-11321.16
2022-09-21T09:58:37.958Z,-11333.97
2022-09-21T10:01:46.639Z,-11331.56
2022-09-21T10:05:06.001Z,-11321.28
2022-09-21T10:08:42.089Z,-11325.66
2022-09-21T10:11:49.238Z,-11334.38
2022-09-21T10:15:00.905Z,-11340.03
2022-09-21T10:18:17.019Z,-11345.09
2022-09-21T10:21:25.093Z,-11345.09
2022-09-21T10:24:33.693Z,-11369.59
2022-09-21T10:27:45.380Z,-11364.25
2022-09-21T10:31:10.399Z,-11380.75
2022-09-21T10:34:17.387Z,-11375.94
2022-09-21T10:37:28.804Z,-11362.28
2022-09-21T10:40:38.705Z,-11371.56
2022-09-21T10:43:45.803Z,-11343.97
2022-09-21T10:50:09.424Z,-11346.22
2022-09-21T10:53:23.930Z,-11356.06
2022-09-21T10:56:30.087Z,-11352.56
2022-09-21T10:59:38.515Z,-11345.66
2022-09-21T11:02:48.142Z,-11363.53
2022-09-21T11:05:55.689Z,-11349.59
2022-09-21T11:09:07.420Z,-11350.16
2022-09-21T11:12:29.758Z,-11355.22
2022-09-21T11:15:46.402Z,-11359.03
2022-09-21T11:19:02.394Z,-11363.69
2022-09-21T11:22:14.322Z,-11356.38
2022-09-21T11:25:32.486Z,-11361.84
2022-09-21T11:28:44.510Z,-11364.53
2022-09-21T11:32:25.042Z,-11369.31
2022-09-21T11:35:46.586Z,-11361.72
2022-09-21T11:39:02.654Z,-11354.81
2022-09-21T11:42:21.812Z,-11350.59
2022-09-21T11:45:48.366Z,-11359.47
2022-09-21T11:49:19.674Z,-11356.06
2022-09-21T11:52:39.954Z,-11350.16
2022-09-21T11:56:02.002Z,-11355.22
2022-09-21T11:59:25.798Z,-11364.09
2022-09-21T12:03:02.086Z,-11347.22
2022-09-21T12:06:18.936Z,-11357.63
2022-09-21T12:09:48.770Z,-11351.72
2022-09-21T12:13:01.955Z,-11356.38
2022-09-21T12:16:15.205Z,-11357.22
2022-09-21T12:19:33.806Z,-11348.63
2022-09-21T12:22:43.125Z,-11349.88
2022-09-21T12:25:53.771Z,-11357.78
2022-09-21T12:29:03.574Z,-11357.06
2022-09-21T12:32:20.974Z,-11360.44
2022-09-21T12:35:33.743Z,-11367.50
2022-09-21T12:38:45.976Z,-11361.72
2022-09-21T12:42:02.088Z,-11361.56
2022-09-21T12:45:15.230Z,-11357.22
2022-09-21T12:48:31.150Z,-11364.81
2022-09-21T12:51:43.084Z,-11360.72
2022-09-21T12:54:58.339Z,-11367.34
2022-09-21T12:58:16.464Z,-11375.25
2022-09-21T13:01:32.987Z,-11358.63
2022-09-21T13:04:53.497Z,-11369.88
2022-09-21T13:08:06.636Z,-11364.25
2022-09-21T13:11:13.047Z,-11362.41
2022-09-21T13:14:21.070Z,-11352.97
2022-09-21T13:17:32.509Z,-11344.81
2022-09-21T13:20:41.283Z,-11344.09
2022-09-21T13:23:56.298Z,-11349.03
2022-09-21T13:27:06.691Z,-11346.09
2022-09-21T13:30:34.107Z,-11336.38
2022-09-21T13:33:41.086Z,-11359.19
2022-09-21T13:37:07.238Z,-11385.66
2022-09-21T13:40:50.301Z,-11380.75
2022-09-21T13:44:06.176Z,-11387.91
2022-09-21T13:47:14.799Z,-11352.84
2022-09-21T13:50:26.046Z,-11356.94
2022-09-21T13:53:39.189Z,-11348.19
2022-09-21T13:56:45.979Z,-11347.06
2022-09-21T14:00:09.159Z,-11331.44
2022-09-21T14:03:25.529Z,-11335.22
2022-09-21T14:06:35.789Z,-11333.28
2022-09-21T14:09:52.524Z,-11342.13
2022-09-21T14:12:59.694Z,-11341.16
2022-09-21T14:16:45.910Z,-11355.50
2022-09-21T14:20:30.152Z,-11355.22
2022-09-21T14:23:39.608Z,-11340.59
2022-09-21T14:27:14.599Z,-11345.81
2022-09-21T14:30:23.193Z,-11461.38
2022-09-21T14:33:36.591Z,-11385.09
2022-09-21T14:36:47.448Z,-11437.69
2022-09-21T14:39:55.800Z,-11360.88
2022-09-21T14:43:04.610Z,-11345.81
2022-09-21T14:46:25.625Z,-11356.66
2022-09-21T14:49:52.326Z,-11337.22
2022-09-21T14:53:29.438Z,-11328.19
2022-09-21T14:56:54.196Z,-11317.22
2022-09-21T15:00:14.465Z,-11322.13
2022-09-21T15:03:49.717Z,-11321.84
2022-09-21T15:07:25.973Z,-11311.56
2022-09-21T15:10:55.134Z,-11304.41
2022-09-21T15:14:22.127Z,-11314.81
2022-09-21T15:17:30.056Z,-11308.19
2022-09-21T15:20:35.980Z,-11307.63
2022-09-21T15:23:42.492Z,-11298.91
2022-09-21T15:26:51.708Z,-11293.84
2022-09-21T15:29:59.764Z,-11288.78
2022-09-21T15:33:06.403Z,-11293.84
2022-09-21T15:36:12.646Z,-11285.97
2022-09-21T15:39:30.248Z,-11276.09
2022-09-21T15:42:50.139Z,-11280.31
2022-09-21T15:46:00.906Z,-11275.69
2022-09-21T15:49:09.855Z,-11284.28
2022-09-21T15:52:24.917Z,-11278.06
2022-09-21T15:55:31.508Z,-11281.59
2022-09-21T15:58:40.546Z,-11277.78
2022-09-21T16:01:52.400Z,-11280.88
2022-09-21T16:04:58.931Z,-11275.53
2022-09-21T16:08:22.723Z,-11276.25
2022-09-21T16:11:37.918Z,-11275.25
2022-09-21T16:14:59.638Z,-11274.97
2022-09-21T16:18:35.850Z,-11271.88
2022-09-21T16:21:41.818Z,-11270.06
2022-09-21T16:24:52.756Z,-11269.06
2022-09-21T16:28:01.102Z,-11260.06
2022-09-21T16:31:30.197Z,-11263.44
2022-09-21T16:34:39.311Z,-11258.94
2022-09-21T16:37:45.764Z,-11258.38
2022-09-21T16:40:54.182Z,-11261.31
2022-09-21T16:44:00.706Z,-11258.66
2022-09-21T16:47:14.110Z,-11251.06
2022-09-21T16:50:21.385Z,-11251.19
2022-09-21T16:53:27.432Z,-11233.31
2022-09-21T16:56:33.608Z,-11238.09
2022-09-21T16:59:39.831Z,-11242.59
2022-09-21T17:02:46.070Z,-11243.75
2022-09-21T17:05:53.816Z,-11232.06
2022-09-21T17:09:00.990Z,-11236.84
2022-09-21T17:12:09.322Z,-11241.34
2022-09-21T17:15:15.864Z,-11234.75
2022-09-21T17:18:22.171Z,-11229.09
2022-09-21T17:21:31.390Z,-11211.09
2022-09-21T17:24:50.398Z,-11222.06
2022-09-21T17:27:58.377Z,-11207.72
2022-09-21T17:31:07.079Z,-11221.66
2022-09-21T17:34:15.327Z,-11220.94
2022-09-21T17:37:25.244Z,-11222.63
2022-09-21T17:40:32.820Z,-11217.56
2022-09-21T17:43:47.799Z,-11212.66
2022-09-21T17:46:59.483Z,-11216.03
2022-09-21T17:50:20.259Z,-11210.25
2022-09-21T17:53:37.562Z,-11203.09
2022-09-21T17:56:49.910Z,-11211.66
2022-09-21T18:00:09.740Z,-11205.75
2022-09-21T18:03:22.613Z,-11215.75
2022-09-21T18:06:29.383Z,-11215.31
2022-09-21T18:09:37.683Z,-11221.09
2022-09-21T18:13:03.533Z,-11220.94
2022-09-21T18:16:24.185Z,-11219.97
2022-09-21T18:19:42.611Z,-11215.31
2022-09-21T18:22:58.401Z,-11212.38
2022-09-21T18:26:06.706Z,-11217.56
2022-09-21T18:29:41.855Z,-11216.16
2022-09-21T18:33:02.379Z,-11213.91
2022-09-21T18:36:23.424Z,-11204.22
2022-09-21T18:39:39.206Z,-11186.34
2022-09-21T18:42:53.222Z,-11195.78
2022-09-21T18:46:03.616Z,-11187.75
2022-09-21T18:49:18.020Z,-11171.31
2022-09-21T18:52:47.266Z,-11175.94
2022-09-21T18:55:54.123Z,-11188.47
2022-09-21T18:59:02.890Z,-11197.59
2022-09-21T19:02:15.526Z,-11201.13
2022-09-21T19:05:22.851Z,-11210.25
2022-09-21T19:08:39.338Z,-11209.84
2022-09-21T19:11:50.314Z,-11218.69
2022-09-21T19:15:12.301Z,-11215.88
2022-09-21T19:18:25.283Z,-11218.97
2022-09-21T19:21:41.279Z,-11213.06
2022-09-21T19:24:58.464Z,-11210.41
2022-09-21T19:28:16.762Z,-11205.19
2022-09-21T19:31:24.576Z,-11198.59
2022-09-21T19:34:31.074Z,-11205.19
2022-09-21T19:37:38.408Z,-11201.25
2022-09-21T19:40:48.667Z,-11202.25
2022-09-21T19:44:01.350Z,-11203.66
2022-09-21T19:47:18.488Z,-11206.59
2022-09-21T19:50:30.707Z,-11195.91
2022-09-21T19:53:54.425Z,-11176.50
2022-09-21T19:57:19.021Z,-11192.13
2022-09-21T20:00:25.679Z,-11179.47
2022-09-21T20:03:40.659Z,-11179.03
2022-09-21T20:06:55.348Z,-11186.22
2022-09-21T20:10:15.374Z,-11179.19
2022-09-21T20:13:28.463Z,-11182.69
2022-09-21T20:16:44.198Z,-11163.59
2022-09-21T20:20:00.348Z,-11165.97
2022-09-21T20:23:07.291Z,-11172.44
2022-09-21T20:26:24.652Z,-11178.47
2022-09-21T20:29:31.183Z,-11172.31
2022-09-21T20:32:38.833Z,-11171.31
2022-09-21T20:35:46.462Z,-11180.72
2022-09-21T20:38:52.716Z,-11180.16
2022-09-21T20:42:00.131Z,-11177.63
2022-09-21T20:45:08.068Z,-11173.44
2022-09-21T20:48:14.642Z,-11181.28
2022-09-21T20:51:21.870Z,-11171.31
2022-09-21T20:54:28.011Z,-11169.50
2022-09-21T20:57:34.484Z,-11145.59
2022-09-21T21:00:41.217Z,-11157.25
2022-09-21T21:03:47.647Z,-11165.84
2022-09-21T21:06:55.854Z,-11166.41
2022-09-21T21:10:02.357Z,-11157.13
2022-09-21T21:13:08.653Z,-11141.81
2022-09-21T21:16:14.819Z,-11144.19
2022-09-21T21:19:21.184Z,-11139.00
2022-09-21T21:22:29.007Z,-11137.44
2022-09-21T21:25:35.249Z,-11144.19
2022-09-21T21:28:41.607Z,-11154.31
2022-09-21T21:31:48.737Z,-11146.16
2022-09-21T21:34:55.870Z,-11130.56
2022-09-21T21:38:03.704Z,-11106.13
2022-09-21T21:41:10.113Z,-11102.91
2022-09-21T21:44:16.466Z,-11129.88
2022-09-21T21:47:40.238Z,-11122.28
2022-09-21T21:50:47.366Z,-11110.91
2022-09-21T21:53:55.356Z,-11122.00
2022-09-21T21:57:02.241Z,-11105.56
2022-09-21T22:00:10.224Z,-11094.31
2022-09-21T22:03:16.897Z,-11110.34
2022-09-21T22:06:23.735Z,-11113.16
2022-09-21T22:09:31.525Z,-11122.28
2022-09-21T22:12:37.365Z,-11112.44
2022-09-21T22:15:44.157Z,-11110.19
2022-09-21T22:18:51.478Z,-11100.94
2022-09-21T22:21:57.819Z,-11104.59
2022-09-21T22:25:05.556Z,-11106.97
2022-09-21T22:28:11.519Z,-11109.06
2022-09-21T22:31:21.052Z,-11108.94
2022-09-21T22:34:27.555Z,-11106.84
2022-09-21T22:37:33.843Z,-11117.50
2022-09-21T22:40:41.631Z,-11131.81
2022-09-21T22:43:49.371Z,-11125.09
2022-09-21T22:46:55.480Z,-11124.53
2022-09-21T22:50:01.616Z,-11123.81
2022-09-21T22:53:07.708Z,-11126.06
2022-09-21T22:56:17.207Z,-11126.63
2022-09-21T22:59:23.421Z,-11107.25
2022-09-21T23:02:29.574Z,-11091.66
2022-09-21T23:05:35.791Z,-11079.59
2022-09-21T23:08:42.074Z,-11076.22
2022-09-21T23:11:53.483Z,-11114.28
2022-09-21T23:14:59.880Z,-11104.31
2022-09-21T23:18:06.047Z,-11082.53
2022-09-21T23:21:14.873Z,-11085.19
2022-09-21T23:24:22.007Z,-11097.84
2022-09-21T23:27:30.214Z,-11102.91
2022-09-21T23:30:36.312Z,-11096.16
2022-09-21T23:33:45.375Z,-11103.19
2022-09-21T23:36:51.821Z,-11112.16
2022-09-21T23:39:58.494Z,-11110.19
2022-09-21T23:43:05.933Z,-11102.06
2022-09-21T23:46:14.390Z,-11108.78
2022-09-21T23:49:20.472Z,-11109.06
2022-09-21T23:52:28.704Z,-11105.28
2022-09-21T23:55:34.751Z,-11099.53
2022-09-21T23:58:42.549Z,-11097.84
